sensor_id;sensor_type;location;lat;lon;timestamp;P1;durP1;ratioP1;P2;durP2;ratioP2
9042;SDS011;4556;49.150;8.808;2022-08-18T00:00:12;3.80;;;3.30;;
9042;SDS011;4556;49.150;8.808;2022-08-18T00:02:41;4.57;;;3.20;;
9042;SDS011;4556;49.150;8.808;2022-08-18T00:05:09;5.90;;;3.47;;
9042;SDS011;4556;49.150;8.808;2022-08-18T00:07:40;3.63;;;3.07;;
9042;SDS011;4556;49.150;8.808;2022-08-18T00:10:07;5.00;;;3.30;;
9042;SDS011;4556;49.150;8.808;2022-08-18T00:12:36;3.60;;;3.30;;
9042;SDS011;4556;49.150;8.808;2022-08-18T00:15:05;5.00;;;3.07;;
9042;SDS011;4556;49.150;8.808;2022-08-18T00:17:34;4.30;;;2.90;;
9042;SDS011;4556;49.150;8.808;2022-08-18T00:20:05;3.50;;;3.03;;
9042;SDS011;4556;49.150;8.808;2022-08-18T00:22:34;3.53;;;3.23;;
9042;SDS011;4556;49.150;8.808;2022-08-18T00:25:04;4.03;;;3.50;;
9042;SDS011;4556;49.150;8.808;2022-08-18T00:27:34;3.70;;;3.40;;
9042;SDS011;4556;49.150;8.808;2022-08-18T00:30:05;4.13;;;3.27;;
9042;SDS011;4556;49.150;8.808;2022-08-18T00:32:35;5.87;;;3.53;;
9042;SDS011;4556;49.150;8.808;2022-08-18T00:35:06;3.67;;;3.37;;
9042;SDS011;4556;49.150;8.808;2022-08-18T00:37:37;3.23;;;2.93;;
9042;SDS011;4556;49.150;8.808;2022-08-18T00:40:06;3.83;;;3.43;;
9042;SDS011;4556;49.150;8.808;2022-08-18T00:42:38;3.83;;;3.10;;
9042;SDS011;4556;49.150;8.808;2022-08-18T00:45:09;5.40;;;3.53;;
9042;SDS011;4556;49.150;8.808;2022-08-18T00:47:39;3.97;;;3.50;;
9042;SDS011;4556;49.150;8.808;2022-08-18T00:50:09;3.70;;;3.30;;
9042;SDS011;4556;49.150;8.808;2022-08-18T00:52:39;4.93;;;3.60;;
9042;SDS011;4556;49.150;8.808;2022-08-18T00:55:07;6.27;;;3.47;;
9042;SDS011;4556;49.150;8.808;2022-08-18T00:57:35;5.10;;;3.80;;
9042;SDS011;4556;49.150;8.808;2022-08-18T01:00:03;3.77;;;3.30;;
9042;SDS011;4556;49.150;8.808;2022-08-18T01:02:36;3.67;;;3.37;;
9042;SDS011;4556;49.150;8.808;2022-08-18T01:05:11;3.93;;;3.20;;
9042;SDS011;4556;49.150;8.808;2022-08-18T01:07:42;4.10;;;3.23;;
9042;SDS011;4556;49.150;8.808;2022-08-18T01:10:11;3.70;;;3.33;;
9042;SDS011;4556;49.150;8.808;2022-08-18T01:12:41;4.60;;;3.67;;
9042;SDS011;4556;49.150;8.808;2022-08-18T01:15:08;4.07;;;3.47;;
9042;SDS011;4556;49.150;8.808;2022-08-18T01:17:39;4.10;;;3.20;;
9042;SDS011;4556;49.150;8.808;2022-08-18T01:20:26;5.33;;;3.60;;
9042;SDS011;4556;49.150;8.808;2022-08-18T01:23:18;3.90;;;3.50;;
9042;SDS011;4556;49.150;8.808;2022-08-18T01:25:47;5.93;;;3.47;;
9042;SDS011;4556;49.150;8.808;2022-08-18T01:28:28;5.47;;;3.70;;
9042;SDS011;4556;49.150;8.808;2022-08-18T01:30:57;3.77;;;3.47;;
9042;SDS011;4556;49.150;8.808;2022-08-18T01:33:27;3.70;;;3.40;;
9042;SDS011;4556;49.150;8.808;2022-08-18T01:35:57;4.60;;;3.37;;
9042;SDS011;4556;49.150;8.808;2022-08-18T01:38:28;5.67;;;3.50;;
9042;SDS011;4556;49.150;8.808;2022-08-18T01:40:56;3.63;;;3.33;;
9042;SDS011;4556;49.150;8.808;2022-08-18T01:43:24;3.60;;;3.10;;
9042;SDS011;4556;49.150;8.808;2022-08-18T01:45:51;4.10;;;3.70;;
9042;SDS011;4556;49.150;8.808;2022-08-18T01:48:25;3.53;;;3.23;;
9042;SDS011;4556;49.150;8.808;2022-08-18T01:50:52;4.80;;;3.50;;
9042;SDS011;4556;49.150;8.808;2022-08-18T01:53:21;3.67;;;3.03;;
9042;SDS011;4556;49.150;8.808;2022-08-18T01:55:50;4.57;;;3.67;;
9042;SDS011;4556;49.150;8.808;2022-08-18T01:58:17;3.50;;;3.17;;
9042;SDS011;4556;49.150;8.808;2022-08-18T02:00:52;4.63;;;3.67;;
9042;SDS011;4556;49.150;8.808;2022-08-18T02:03:20;3.57;;;3.27;;
9042;SDS011;4556;49.150;8.808;2022-08-18T02:05:51;3.63;;;3.33;;
9042;SDS011;4556;49.150;8.808;2022-08-18T02:08:21;3.97;;;3.63;;
9042;SDS011;4556;49.150;8.808;2022-08-18T02:10:50;4.00;;;3.60;;
9042;SDS011;4556;49.150;8.808;2022-08-18T02:13:17;3.60;;;3.30;;
9042;SDS011;4556;49.150;8.808;2022-08-18T02:15:44;3.87;;;3.30;;
9042;SDS011;4556;49.150;8.808;2022-08-18T02:18:12;3.93;;;3.53;;
9042;SDS011;4556;49.150;8.808;2022-08-18T02:20:40;3.63;;;3.33;;
9042;SDS011;4556;49.150;8.808;2022-08-18T02:23:08;4.10;;;3.23;;
9042;SDS011;4556;49.150;8.808;2022-08-18T02:25:36;3.43;;;3.13;;
9042;SDS011;4556;49.150;8.808;2022-08-18T02:28:05;4.53;;;3.10;;
9042;SDS011;4556;49.150;8.808;2022-08-18T02:30:32;4.43;;;3.60;;
9042;SDS011;4556;49.150;8.808;2022-08-18T02:33:01;3.67;;;3.13;;
9042;SDS011;4556;49.150;8.808;2022-08-18T02:35:28;3.57;;;3.10;;
9042;SDS011;4556;49.150;8.808;2022-08-18T02:37:57;4.10;;;3.50;;
9042;SDS011;4556;49.150;8.808;2022-08-18T02:40:25;3.73;;;3.40;;
9042;SDS011;4556;49.150;8.808;2022-08-18T02:42:52;6.60;;;3.63;;
9042;SDS011;4556;49.150;8.808;2022-08-18T02:45:22;3.33;;;3.03;;
9042;SDS011;4556;49.150;8.808;2022-08-18T02:47:50;4.30;;;3.20;;
9042;SDS011;4556;49.150;8.808;2022-08-18T02:50:18;4.13;;;3.40;;
9042;SDS011;4556;49.150;8.808;2022-08-18T02:52:46;3.33;;;3.03;;
9042;SDS011;4556;49.150;8.808;2022-08-18T02:55:13;3.47;;;3.13;;
9042;SDS011;4556;49.150;8.808;2022-08-18T02:57:41;3.43;;;3.13;;
9042;SDS011;4556;49.150;8.808;2022-08-18T03:00:10;3.60;;;3.30;;
9042;SDS011;4556;49.150;8.808;2022-08-18T03:02:43;3.43;;;3.13;;
9042;SDS011;4556;49.150;8.808;2022-08-18T03:05:11;3.90;;;3.50;;
9042;SDS011;4556;49.150;8.808;2022-08-18T03:07:39;4.40;;;3.33;;
9042;SDS011;4556;49.150;8.808;2022-08-18T03:10:06;4.93;;;3.20;;
9042;SDS011;4556;49.150;8.808;2022-08-18T03:12:34;3.43;;;2.97;;
9042;SDS011;4556;49.150;8.808;2022-08-18T03:15:02;3.60;;;3.13;;
9042;SDS011;4556;49.150;8.808;2022-08-18T03:17:29;3.33;;;3.03;;
9042;SDS011;4556;49.150;8.808;2022-08-18T03:19:58;3.83;;;2.90;;
9042;SDS011;4556;49.150;8.808;2022-08-18T03:22:25;4.27;;;2.97;;
9042;SDS011;4556;49.150;8.808;2022-08-18T03:24:52;3.60;;;3.20;;
9042;SDS011;4556;49.150;8.808;2022-08-18T03:27:20;4.10;;;3.10;;
9042;SDS011;4556;49.150;8.808;2022-08-18T03:29:47;3.57;;;2.90;;
9042;SDS011;4556;49.150;8.808;2022-08-18T03:32:15;3.57;;;2.80;;
9042;SDS011;4556;49.150;8.808;2022-08-18T03:34:42;3.57;;;3.27;;
9042;SDS011;4556;49.150;8.808;2022-08-18T03:37:11;3.20;;;2.90;;
9042;SDS011;4556;49.150;8.808;2022-08-18T03:39:40;3.23;;;2.93;;
9042;SDS011;4556;49.150;8.808;2022-08-18T03:42:07;3.47;;;3.17;;
9042;SDS011;4556;49.150;8.808;2022-08-18T03:44:35;3.17;;;2.87;;
9042;SDS011;4556;49.150;8.808;2022-08-18T03:47:02;4.30;;;2.80;;
9042;SDS011;4556;49.150;8.808;2022-08-18T03:49:32;4.17;;;3.00;;
9042;SDS011;4556;49.150;8.808;2022-08-18T03:52:00;3.53;;;2.80;;
9042;SDS011;4556;49.150;8.808;2022-08-18T03:54:31;3.70;;;3.30;;
9042;SDS011;4556;49.150;8.808;2022-08-18T03:56:58;3.27;;;2.97;;
9042;SDS011;4556;49.150;8.808;2022-08-18T03:59:27;4.77;;;3.17;;
9042;SDS011;4556;49.150;8.808;2022-08-18T04:01:57;3.77;;;3.30;;
9042;SDS011;4556;49.150;8.808;2022-08-18T04:04:25;3.40;;;3.10;;
9042;SDS011;4556;49.150;8.808;2022-08-18T04:06:55;4.10;;;2.90;;
9042;SDS011;4556;49.150;8.808;2022-08-18T04:09:25;3.33;;;2.67;;
9042;SDS011;4556;49.150;8.808;2022-08-18T04:11:57;3.63;;;3.23;;
9042;SDS011;4556;49.150;8.808;2022-08-18T04:14:28;6.40;;;3.27;;
9042;SDS011;4556;49.150;8.808;2022-08-18T04:16:56;3.70;;;3.13;;
9042;SDS011;4556;49.150;8.808;2022-08-18T04:19:40;3.50;;;3.17;;
9042;SDS011;4556;49.150;8.808;2022-08-18T04:22:07;3.20;;;2.90;;
9042;SDS011;4556;49.150;8.808;2022-08-18T04:24:34;4.30;;;3.03;;
9042;SDS011;4556;49.150;8.808;2022-08-18T04:27:03;4.27;;;3.30;;
9042;SDS011;4556;49.150;8.808;2022-08-18T04:29:30;3.00;;;2.70;;
9042;SDS011;4556;49.150;8.808;2022-08-18T04:31:59;3.80;;;3.20;;
9042;SDS011;4556;49.150;8.808;2022-08-18T04:34:28;3.70;;;3.10;;
9042;SDS011;4556;49.150;8.808;2022-08-18T04:36:57;3.47;;;3.17;;
9042;SDS011;4556;49.150;8.808;2022-08-18T04:39:24;4.20;;;3.80;;
9042;SDS011;4556;49.150;8.808;2022-08-18T04:41:51;4.50;;;3.40;;
9042;SDS011;4556;49.150;8.808;2022-08-18T04:44:20;4.67;;;3.47;;
9042;SDS011;4556;49.150;8.808;2022-08-18T04:46:49;3.50;;;3.20;;
9042;SDS011;4556;49.150;8.808;2022-08-18T04:49:18;3.50;;;3.10;;
9042;SDS011;4556;49.150;8.808;2022-08-18T04:51:48;4.00;;;3.40;;
9042;SDS011;4556;49.150;8.808;2022-08-18T04:54:30;4.03;;;3.43;;
9042;SDS011;4556;49.150;8.808;2022-08-18T04:56:58;3.97;;;3.60;;
9042;SDS011;4556;49.150;8.808;2022-08-18T04:59:33;3.80;;;3.50;;
9042;SDS011;4556;49.150;8.808;2022-08-18T05:02:00;4.00;;;3.50;;
9042;SDS011;4556;49.150;8.808;2022-08-18T05:04:29;4.40;;;4.00;;
9042;SDS011;4556;49.150;8.808;2022-08-18T05:06:58;4.73;;;3.90;;
9042;SDS011;4556;49.150;8.808;2022-08-18T05:09:31;22.03;;;4.57;;
9042;SDS011;4556;49.150;8.808;2022-08-18T05:12:00;8.10;;;3.67;;
9042;SDS011;4556;49.150;8.808;2022-08-18T05:14:28;3.87;;;3.57;;
9042;SDS011;4556;49.150;8.808;2022-08-18T05:16:58;5.27;;;4.03;;
9042;SDS011;4556;49.150;8.808;2022-08-18T05:19:26;4.73;;;4.00;;
9042;SDS011;4556;49.150;8.808;2022-08-18T05:21:55;5.33;;;4.33;;
9042;SDS011;4556;49.150;8.808;2022-08-18T05:24:23;5.27;;;4.00;;
9042;SDS011;4556;49.150;8.808;2022-08-18T05:26:52;5.23;;;3.87;;
9042;SDS011;4556;49.150;8.808;2022-08-18T05:29:22;6.37;;;4.00;;
9042;SDS011;4556;49.150;8.808;2022-08-18T05:31:50;4.33;;;3.80;;
9042;SDS011;4556;49.150;8.808;2022-08-18T05:34:20;4.50;;;4.10;;
9042;SDS011;4556;49.150;8.808;2022-08-18T05:37:01;4.70;;;4.17;;
9042;SDS011;4556;49.150;8.808;2022-08-18T05:39:44;4.70;;;4.20;;
9042;SDS011;4556;49.150;8.808;2022-08-18T05:42:20;4.57;;;4.17;;
9042;SDS011;4556;49.150;8.808;2022-08-18T05:44:49;4.90;;;4.30;;
9042;SDS011;4556;49.150;8.808;2022-08-18T05:47:21;5.10;;;4.60;;
9042;SDS011;4556;49.150;8.808;2022-08-18T05:49:52;4.70;;;4.30;;
9042;SDS011;4556;49.150;8.808;2022-08-18T05:52:23;7.80;;;4.60;;
9042;SDS011;4556;49.150;8.808;2022-08-18T05:54:57;4.93;;;4.43;;
9042;SDS011;4556;49.150;8.808;2022-08-18T05:57:46;5.33;;;4.30;;
9042;SDS011;4556;49.150;8.808;2022-08-18T06:00:16;5.00;;;4.17;;
9042;SDS011;4556;49.150;8.808;2022-08-18T06:02:46;4.67;;;4.13;;
9042;SDS011;4556;49.150;8.808;2022-08-18T06:05:24;4.37;;;3.90;;
9042;SDS011;4556;49.150;8.808;2022-08-18T06:07:57;5.30;;;4.30;;
9042;SDS011;4556;49.150;8.808;2022-08-18T06:10:26;5.00;;;4.17;;
9042;SDS011;4556;49.150;8.808;2022-08-18T06:12:56;5.93;;;4.10;;
9042;SDS011;4556;49.150;8.808;2022-08-18T06:15:26;6.90;;;4.53;;
9042;SDS011;4556;49.150;8.808;2022-08-18T06:18:06;6.07;;;4.50;;
9042;SDS011;4556;49.150;8.808;2022-08-18T06:21:04;4.10;;;3.70;;
9042;SDS011;4556;49.150;8.808;2022-08-18T06:23:45;4.70;;;4.30;;
9042;SDS011;4556;49.150;8.808;2022-08-18T06:26:20;4.67;;;4.20;;
9042;SDS011;4556;49.150;8.808;2022-08-18T06:28:56;4.47;;;4.07;;
9042;SDS011;4556;49.150;8.808;2022-08-18T06:31:40;4.70;;;3.87;;
9042;SDS011;4556;49.150;8.808;2022-08-18T06:34:14;4.10;;;3.70;;
9042;SDS011;4556;49.150;8.808;2022-08-18T06:36:51;4.80;;;4.00;;
9042;SDS011;4556;49.150;8.808;2022-08-18T06:39:25;5.40;;;4.07;;
9042;SDS011;4556;49.150;8.808;2022-08-18T06:41:56;4.40;;;4.00;;
9042;SDS011;4556;49.150;8.808;2022-08-18T06:44:25;4.73;;;4.23;;
9042;SDS011;4556;49.150;8.808;2022-08-18T06:46:58;5.13;;;4.20;;
9042;SDS011;4556;49.150;8.808;2022-08-18T06:49:34;4.60;;;3.97;;
9042;SDS011;4556;49.150;8.808;2022-08-18T06:52:24;4.90;;;4.40;;
9042;SDS011;4556;49.150;8.808;2022-08-18T06:54:56;5.43;;;4.10;;
9042;SDS011;4556;49.150;8.808;2022-08-18T06:57:27;5.00;;;4.10;;
9042;SDS011;4556;49.150;8.808;2022-08-18T06:59:58;4.77;;;4.27;;
9042;SDS011;4556;49.150;8.808;2022-08-18T07:02:34;4.67;;;4.13;;
9042;SDS011;4556;49.150;8.808;2022-08-18T07:05:15;5.30;;;4.80;;
9042;SDS011;4556;49.150;8.808;2022-08-18T07:08:01;4.10;;;3.77;;
9042;SDS011;4556;49.150;8.808;2022-08-18T07:10:39;5.23;;;4.00;;
9042;SDS011;4556;49.150;8.808;2022-08-18T07:13:19;4.90;;;4.40;;
9042;SDS011;4556;49.150;8.808;2022-08-18T07:15:49;4.43;;;4.03;;
9042;SDS011;4556;49.150;8.808;2022-08-18T07:18:20;4.90;;;4.40;;
9042;SDS011;4556;49.150;8.808;2022-08-18T07:20:51;5.40;;;4.90;;
9042;SDS011;4556;49.150;8.808;2022-08-18T07:23:22;8.63;;;5.00;;
9042;SDS011;4556;49.150;8.808;2022-08-18T07:25:56;8.07;;;4.70;;
9042;SDS011;4556;49.150;8.808;2022-08-18T07:28:34;5.73;;;4.90;;
9042;SDS011;4556;49.150;8.808;2022-08-18T07:31:22;5.47;;;4.97;;
9042;SDS011;4556;49.150;8.808;2022-08-18T07:34:02;6.57;;;4.83;;
9042;SDS011;4556;49.150;8.808;2022-08-18T07:36:32;5.77;;;4.80;;
9042;SDS011;4556;49.150;8.808;2022-08-18T07:39:12;5.57;;;5.03;;
9042;SDS011;4556;49.150;8.808;2022-08-18T07:41:49;6.50;;;4.80;;
9042;SDS011;4556;49.150;8.808;2022-08-18T07:44:24;5.93;;;4.93;;
9042;SDS011;4556;49.150;8.808;2022-08-18T07:46:58;4.77;;;4.27;;
9042;SDS011;4556;49.150;8.808;2022-08-18T07:49:30;4.80;;;4.20;;
9042;SDS011;4556;49.150;8.808;2022-08-18T07:52:00;7.60;;;4.80;;
9042;SDS011;4556;49.150;8.808;2022-08-18T07:54:46;5.50;;;5.00;;
9042;SDS011;4556;49.150;8.808;2022-08-18T07:57:23;5.27;;;4.60;;
9042;SDS011;4556;49.150;8.808;2022-08-18T08:00:00;6.13;;;4.57;;
9042;SDS011;4556;49.150;8.808;2022-08-18T08:02:37;6.53;;;4.90;;
9042;SDS011;4556;49.150;8.808;2022-08-18T08:05:14;5.07;;;4.57;;
9042;SDS011;4556;49.150;8.808;2022-08-18T08:07:47;5.43;;;4.77;;
9042;SDS011;4556;49.150;8.808;2022-08-18T08:10:24;6.30;;;5.10;;
9042;SDS011;4556;49.150;8.808;2022-08-18T08:13:02;6.07;;;5.30;;
9042;SDS011;4556;49.150;8.808;2022-08-18T08:15:40;5.70;;;5.20;;
9042;SDS011;4556;49.150;8.808;2022-08-18T08:18:22;5.27;;;4.77;;
9042;SDS011;4556;49.150;8.808;2022-08-18T08:21:00;6.23;;;5.50;;
9042;SDS011;4556;49.150;8.808;2022-08-18T08:23:33;5.47;;;4.97;;
9042;SDS011;4556;49.150;8.808;2022-08-18T08:28:56;6.63;;;5.90;;
9042;SDS011;4556;49.150;8.808;2022-08-18T08:31:39;6.63;;;6.03;;
9042;SDS011;4556;49.150;8.808;2022-08-18T08:34:14;6.00;;;5.50;;
9042;SDS011;4556;49.150;8.808;2022-08-18T08:36:46;7.63;;;6.30;;
9042;SDS011;4556;49.150;8.808;2022-08-18T08:39:18;5.73;;;5.23;;
9042;SDS011;4556;49.150;8.808;2022-08-18T08:41:52;7.70;;;5.47;;
9042;SDS011;4556;49.150;8.808;2022-08-18T08:44:24;6.07;;;5.47;;
9042;SDS011;4556;49.150;8.808;2022-08-18T08:46:56;8.40;;;5.97;;
9042;SDS011;4556;49.150;8.808;2022-08-18T08:49:30;6.33;;;5.33;;
9042;SDS011;4556;49.150;8.808;2022-08-18T08:52:02;7.70;;;5.87;;
9042;SDS011;4556;49.150;8.808;2022-08-18T08:54:37;6.73;;;5.90;;
9042;SDS011;4556;49.150;8.808;2022-08-18T08:57:10;7.33;;;5.63;;
9042;SDS011;4556;49.150;8.808;2022-08-18T08:59:39;6.67;;;6.00;;
9042;SDS011;4556;49.150;8.808;2022-08-18T09:02:22;8.47;;;6.43;;
9042;SDS011;4556;49.150;8.808;2022-08-18T09:04:59;7.10;;;5.23;;
9042;SDS011;4556;49.150;8.808;2022-08-18T09:07:38;7.97;;;6.60;;
9042;SDS011;4556;49.150;8.808;2022-08-18T09:10:28;7.00;;;6.10;;
9042;SDS011;4556;49.150;8.808;2022-08-18T09:13:13;6.60;;;6.00;;
9042;SDS011;4556;49.150;8.808;2022-08-18T09:16:04;6.83;;;6.10;;
9042;SDS011;4556;49.150;8.808;2022-08-18T09:18:58;8.00;;;6.87;;
9042;SDS011;4556;49.150;8.808;2022-08-18T09:21:44;8.40;;;7.60;;
9042;SDS011;4556;49.150;8.808;2022-08-18T09:24:19;8.77;;;7.47;;
9042;SDS011;4556;49.150;8.808;2022-08-18T09:26:51;7.53;;;6.83;;
9042;SDS011;4556;49.150;8.808;2022-08-18T09:29:22;8.70;;;6.83;;
9042;SDS011;4556;49.150;8.808;2022-08-18T09:34:57;7.57;;;6.87;;
9042;SDS011;4556;49.150;8.808;2022-08-18T09:37:37;8.27;;;7.33;;
9042;SDS011;4556;49.150;8.808;2022-08-18T09:40:13;7.83;;;7.13;;
9042;SDS011;4556;49.150;8.808;2022-08-18T09:43:05;9.47;;;8.57;;
9042;SDS011;4556;49.150;8.808;2022-08-18T09:45:55;8.80;;;7.90;;
9042;SDS011;4556;49.150;8.808;2022-08-18T09:48:26;8.50;;;7.67;;
9042;SDS011;4556;49.150;8.808;2022-08-18T09:50:56;9.20;;;8.30;;
9042;SDS011;4556;49.150;8.808;2022-08-18T09:53:53;8.90;;;8.10;;
9042;SDS011;4556;49.150;8.808;2022-08-18T09:56:55;9.70;;;8.70;;
9042;SDS011;4556;49.150;8.808;2022-08-18T10:09:03;8.87;;;7.97;;
9042;SDS011;4556;49.150;8.808;2022-08-18T10:11:47;8.40;;;7.50;;
9042;SDS011;4556;49.150;8.808;2022-08-18T10:14:36;12.07;;;8.47;;
9042;SDS011;4556;49.150;8.808;2022-08-18T10:17:24;9.30;;;7.77;;
9042;SDS011;4556;49.150;8.808;2022-08-18T10:20:09;9.03;;;7.60;;
9042;SDS011;4556;49.150;8.808;2022-08-18T10:22:56;8.70;;;7.80;;
9042;SDS011;4556;49.150;8.808;2022-08-18T10:25:31;8.47;;;7.70;;
9042;SDS011;4556;49.150;8.808;2022-08-18T10:28:01;9.73;;;8.73;;
9042;SDS011;4556;49.150;8.808;2022-08-18T10:30:43;8.23;;;7.40;;
9042;SDS011;4556;49.150;8.808;2022-08-18T10:36:40;8.97;;;8.17;;
9042;SDS011;4556;49.150;8.808;2022-08-18T10:39:12;8.50;;;7.60;;
9042;SDS011;4556;49.150;8.808;2022-08-18T10:41:47;9.53;;;8.63;;
9042;SDS011;4556;49.150;8.808;2022-08-18T10:44:29;10.20;;;9.20;;
9042;SDS011;4556;49.150;8.808;2022-08-18T10:46:59;11.17;;;9.50;;
9042;SDS011;4556;49.150;8.808;2022-08-18T10:49:28;10.13;;;9.17;;
9042;SDS011;4556;49.150;8.808;2022-08-18T10:52:06;9.83;;;8.63;;
9042;SDS011;4556;49.150;8.808;2022-08-18T10:55:00;10.77;;;9.70;;
9042;SDS011;4556;49.150;8.808;2022-08-18T10:57:52;9.40;;;8.50;;
9042;SDS011;4556;49.150;8.808;2022-08-18T11:00:34;10.10;;;8.37;;
9042;SDS011;4556;49.150;8.808;2022-08-18T11:03:15;10.90;;;9.80;;
9042;SDS011;4556;49.150;8.808;2022-08-18T11:05:59;10.13;;;9.13;;
9042;SDS011;4556;49.150;8.808;2022-08-18T11:08:30;9.97;;;8.97;;
9042;SDS011;4556;49.150;8.808;2022-08-18T11:11:05;9.30;;;8.30;;
9042;SDS011;4556;49.150;8.808;2022-08-18T11:13:35;9.60;;;8.60;;
9042;SDS011;4556;49.150;8.808;2022-08-18T11:16:17;9.80;;;8.80;;
9042;SDS011;4556;49.150;8.808;2022-08-18T11:18:54;9.93;;;8.03;;
9042;SDS011;4556;49.150;8.808;2022-08-18T11:21:32;9.70;;;8.67;;
9042;SDS011;4556;49.150;8.808;2022-08-18T11:24:06;9.17;;;8.27;;
9042;SDS011;4556;49.150;8.808;2022-08-18T11:26:36;8.87;;;7.97;;
9042;SDS011;4556;49.150;8.808;2022-08-18T11:29:17;7.67;;;6.83;;
9042;SDS011;4556;49.150;8.808;2022-08-18T11:31:49;7.97;;;7.13;;
9042;SDS011;4556;49.150;8.808;2022-08-18T11:34:21;7.80;;;6.27;;
9042;SDS011;4556;49.150;8.808;2022-08-18T11:36:55;7.07;;;6.17;;
9042;SDS011;4556;49.150;8.808;2022-08-18T11:39:40;7.97;;;6.07;;
9042;SDS011;4556;49.150;8.808;2022-08-18T11:42:13;7.00;;;5.43;;
9042;SDS011;4556;49.150;8.808;2022-08-18T11:44:42;9.00;;;6.13;;
9042;SDS011;4556;49.150;8.808;2022-08-18T11:47:15;6.90;;;6.20;;
9042;SDS011;4556;49.150;8.808;2022-08-18T11:49:52;8.00;;;7.00;;
9042;SDS011;4556;49.150;8.808;2022-08-18T11:52:23;7.43;;;6.07;;
9042;SDS011;4556;49.150;8.808;2022-08-18T11:54:59;7.07;;;6.30;;
9042;SDS011;4556;49.150;8.808;2022-08-18T11:57:39;6.77;;;6.13;;
9042;SDS011;4556;49.150;8.808;2022-08-18T12:00:36;7.33;;;6.00;;
9042;SDS011;4556;49.150;8.808;2022-08-18T12:03:09;7.03;;;5.83;;
9042;SDS011;4556;49.150;8.808;2022-08-18T12:05:43;7.03;;;6.43;;
9042;SDS011;4556;49.150;8.808;2022-08-18T12:08:17;7.40;;;6.70;;
9042;SDS011;4556;49.150;8.808;2022-08-18T12:10:59;8.27;;;6.67;;
9042;SDS011;4556;49.150;8.808;2022-08-18T12:13:28;6.70;;;6.10;;
9042;SDS011;4556;49.150;8.808;2022-08-18T12:16:06;6.77;;;5.63;;
9042;SDS011;4556;49.150;8.808;2022-08-18T12:18:39;6.53;;;5.93;;
9042;SDS011;4556;49.150;8.808;2022-08-18T12:21:07;6.43;;;5.73;;
9042;SDS011;4556;49.150;8.808;2022-08-18T12:23:35;6.53;;;5.67;;
9042;SDS011;4556;49.150;8.808;2022-08-18T12:26:08;4.93;;;4.53;;
9042;SDS011;4556;49.150;8.808;2022-08-18T12:28:35;5.33;;;4.83;;
9042;SDS011;4556;49.150;8.808;2022-08-18T12:31:04;4.93;;;4.40;;
9042;SDS011;4556;49.150;8.808;2022-08-18T12:33:32;5.80;;;5.20;;
9042;SDS011;4556;49.150;8.808;2022-08-18T12:35:59;5.80;;;5.20;;
9042;SDS011;4556;49.150;8.808;2022-08-18T12:38:27;6.57;;;5.83;;
9042;SDS011;4556;49.150;8.808;2022-08-18T12:40:55;6.10;;;5.47;;
9042;SDS011;4556;49.150;8.808;2022-08-18T12:43:24;7.27;;;5.40;;
9042;SDS011;4556;49.150;8.808;2022-08-18T12:45:52;8.73;;;6.00;;
9042;SDS011;4556;49.150;8.808;2022-08-18T12:48:19;6.50;;;5.80;;
9042;SDS011;4556;49.150;8.808;2022-08-18T12:50:46;5.43;;;4.93;;
9042;SDS011;4556;49.150;8.808;2022-08-18T12:53:13;6.20;;;5.27;;
9042;SDS011;4556;49.150;8.808;2022-08-18T12:55:41;6.33;;;5.73;;
9042;SDS011;4556;49.150;8.808;2022-08-18T12:58:11;5.23;;;4.83;;
9042;SDS011;4556;49.150;8.808;2022-08-18T13:00:40;5.50;;;5.00;;
9042;SDS011;4556;49.150;8.808;2022-08-18T13:03:07;6.00;;;5.40;;
9042;SDS011;4556;49.150;8.808;2022-08-18T13:05:34;5.77;;;5.27;;
9042;SDS011;4556;49.150;8.808;2022-08-18T13:08:03;5.80;;;5.30;;
9042;SDS011;4556;49.150;8.808;2022-08-18T13:10:42;5.73;;;5.23;;
9042;SDS011;4556;49.150;8.808;2022-08-18T13:13:09;5.30;;;4.80;;
9042;SDS011;4556;49.150;8.808;2022-08-18T13:15:37;5.70;;;5.20;;
9042;SDS011;4556;49.150;8.808;2022-08-18T13:18:06;5.17;;;4.77;;
9042;SDS011;4556;49.150;8.808;2022-08-18T13:20:35;6.90;;;4.63;;
9042;SDS011;4556;49.150;8.808;2022-08-18T13:23:02;5.67;;;4.77;;
9042;SDS011;4556;49.150;8.808;2022-08-18T13:25:29;6.50;;;5.03;;
9042;SDS011;4556;49.150;8.808;2022-08-18T13:27:57;6.13;;;5.00;;
9042;SDS011;4556;49.150;8.808;2022-08-18T13:30:25;5.20;;;4.40;;
9042;SDS011;4556;49.150;8.808;2022-08-18T13:32:53;4.57;;;4.17;;
9042;SDS011;4556;49.150;8.808;2022-08-18T13:35:21;4.70;;;4.30;;
9042;SDS011;4556;49.150;8.808;2022-08-18T13:37:48;5.17;;;4.43;;
9042;SDS011;4556;49.150;8.808;2022-08-18T13:40:15;4.70;;;4.20;;
9042;SDS011;4556;49.150;8.808;2022-08-18T13:42:43;5.20;;;4.70;;
9042;SDS011;4556;49.150;8.808;2022-08-18T13:45:14;5.10;;;4.20;;
9042;SDS011;4556;49.150;8.808;2022-08-18T13:47:42;5.00;;;4.60;;
9042;SDS011;4556;49.150;8.808;2022-08-18T13:50:11;5.00;;;4.60;;
9042;SDS011;4556;49.150;8.808;2022-08-18T13:52:39;6.03;;;4.67;;
9042;SDS011;4556;49.150;8.808;2022-08-18T13:55:08;5.13;;;4.63;;
9042;SDS011;4556;49.150;8.808;2022-08-18T13:57:37;5.67;;;5.07;;
9042;SDS011;4556;49.150;8.808;2022-08-18T14:00:07;5.13;;;4.73;;
9042;SDS011;4556;49.150;8.808;2022-08-18T14:02:38;5.03;;;4.63;;
9042;SDS011;4556;49.150;8.808;2022-08-18T14:05:05;6.67;;;5.13;;
9042;SDS011;4556;49.150;8.808;2022-08-18T14:07:35;5.10;;;4.60;;
9042;SDS011;4556;49.150;8.808;2022-08-18T14:10:03;5.07;;;4.57;;
9042;SDS011;4556;49.150;8.808;2022-08-18T14:12:32;5.37;;;4.87;;
9042;SDS011;4556;49.150;8.808;2022-08-18T14:15:03;5.17;;;4.57;;
9042;SDS011;4556;49.150;8.808;2022-08-18T14:17:32;5.63;;;5.13;;
9042;SDS011;4556;49.150;8.808;2022-08-18T14:20:00;5.43;;;4.93;;
9042;SDS011;4556;49.150;8.808;2022-08-18T14:22:47;5.17;;;4.67;;
9042;SDS011;4556;49.150;8.808;2022-08-18T14:25:33;5.80;;;5.30;;
9042;SDS011;4556;49.150;8.808;2022-08-18T14:28:17;6.13;;;4.93;;
9042;SDS011;4556;49.150;8.808;2022-08-18T14:30:44;5.47;;;4.97;;
9042;SDS011;4556;49.150;8.808;2022-08-18T14:33:12;7.07;;;5.50;;
9042;SDS011;4556;49.150;8.808;2022-08-18T14:35:42;5.73;;;5.23;;
9042;SDS011;4556;49.150;8.808;2022-08-18T14:38:11;5.67;;;5.00;;
9042;SDS011;4556;49.150;8.808;2022-08-18T14:40:39;5.90;;;5.40;;
9042;SDS011;4556;49.150;8.808;2022-08-18T14:43:07;5.70;;;5.03;;
9042;SDS011;4556;49.150;8.808;2022-08-18T14:45:34;5.90;;;4.70;;
9042;SDS011;4556;49.150;8.808;2022-08-18T14:48:02;5.00;;;4.53;;
9042;SDS011;4556;49.150;8.808;2022-08-18T14:50:30;5.33;;;4.83;;
9042;SDS011;4556;49.150;8.808;2022-08-18T14:52:59;4.67;;;4.27;;
9042;SDS011;4556;49.150;8.808;2022-08-18T14:55:27;5.70;;;5.20;;
9042;SDS011;4556;49.150;8.808;2022-08-18T14:57:54;5.40;;;4.90;;
9042;SDS011;4556;49.150;8.808;2022-08-18T15:00:22;5.37;;;4.87;;
9042;SDS011;4556;49.150;8.808;2022-08-18T15:02:49;5.43;;;4.80;;
9042;SDS011;4556;49.150;8.808;2022-08-18T15:05:16;5.43;;;4.93;;
9042;SDS011;4556;49.150;8.808;2022-08-18T15:07:45;5.77;;;4.50;;
9042;SDS011;4556;49.150;8.808;2022-08-18T15:10:13;5.37;;;4.87;;
9042;SDS011;4556;49.150;8.808;2022-08-18T15:12:42;5.40;;;4.90;;
9042;SDS011;4556;49.150;8.808;2022-08-18T15:15:14;5.67;;;5.17;;
9042;SDS011;4556;49.150;8.808;2022-08-18T15:17:42;5.67;;;5.07;;
9042;SDS011;4556;49.150;8.808;2022-08-18T15:20:09;6.53;;;5.37;;
9042;SDS011;4556;49.150;8.808;2022-08-18T15:22:37;5.50;;;4.87;;
9042;SDS011;4556;49.150;8.808;2022-08-18T15:25:23;6.43;;;5.13;;
9042;SDS011;4556;49.150;8.808;2022-08-18T15:28:10;6.90;;;4.80;;
9042;SDS011;4556;49.150;8.808;2022-08-18T15:30:41;6.60;;;5.43;;
9042;SDS011;4556;49.150;8.808;2022-08-18T15:33:10;5.57;;;5.07;;
9042;SDS011;4556;49.150;8.808;2022-08-18T15:35:38;5.80;;;5.27;;
9042;SDS011;4556;49.150;8.808;2022-08-18T15:38:06;5.53;;;5.03;;
9042;SDS011;4556;49.150;8.808;2022-08-18T15:40:33;5.17;;;4.67;;
9042;SDS011;4556;49.150;8.808;2022-08-18T15:43:01;5.60;;;5.10;;
9042;SDS011;4556;49.150;8.808;2022-08-18T15:45:35;5.53;;;5.03;;
9042;SDS011;4556;49.150;8.808;2022-08-18T15:48:04;6.80;;;4.80;;
9042;SDS011;4556;49.150;8.808;2022-08-18T15:50:31;5.77;;;4.33;;
9042;SDS011;4556;49.150;8.808;2022-08-18T15:52:59;6.17;;;4.97;;
9042;SDS011;4556;49.150;8.808;2022-08-18T15:55:31;5.20;;;4.70;;
9042;SDS011;4556;49.150;8.808;2022-08-18T15:58:01;5.83;;;5.20;;
9042;SDS011;4556;49.150;8.808;2022-08-18T16:00:29;6.33;;;4.83;;
9042;SDS011;4556;49.150;8.808;2022-08-18T16:02:59;5.23;;;4.73;;
9042;SDS011;4556;49.150;8.808;2022-08-18T16:05:29;5.43;;;4.90;;